Time;durP1;ratioP1;P1;durP2;ratioP2;P2;SDS_P1;SDS_P2;PMS_P1;PMS_P2;Temp;Humidity;BMP_temperature;BMP_pressure;BME280_temperature;BME280_humidity;BME280_pressure;Samples;Min_cycle;Max_cycle;Signal;HPM_P1;HPM_P2
2023/05/23 00:01:41;;;;;;;0.57;0.57;;;13.30;99.90;;;;;;5035364;28;20198;-68
2023/05/23 00:04:08;;;;;;;0.82;0.80;;;13.30;99.90;;;;;;5033992;28;20238;-68
2023/05/23 00:06:34;;;;;;;0.32;0.32;;;13.30;99.90;;;;;;5034879;28;20608;-68
2023/05/23 00:09:01;;;;;;;0.45;0.45;;;13.30;99.90;;;;;;5035300;28;20724;-68
2023/05/23 00:11:28;;;;;;;0.85;0.85;;;13.20;99.90;;;;;;5017316;28;20563;-68
2023/05/23 00:13:54;;;;;;;0.80;0.80;;;13.10;99.90;;;;;;5035349;28;20186;-68
2023/05/23 00:16:21;;;;;;;0.55;0.55;;;13.20;99.90;;;;;;5035079;28;20198;-68
2023/05/23 00:18:49;;;;;;;0.50;0.50;;;13.20;99.90;;;;;;5035277;28;20193;-68
2023/05/23 00:21:15;;;;;;;1.45;1.02;;;13.20;99.90;;;;;;5014033;28;20211;-68
2023/05/23 00:23:42;;;;;;;1.75;1.08;;;13.10;99.90;;;;;;5013919;28;20202;-68
2023/05/23 00:26:08;;;;;;;0.55;0.55;;;13.10;99.90;;;;;;5015480;28;20202;-68
2023/05/23 00:28:34;;;;;;;0.40;0.40;;;13.10;99.90;;;;;;5015119;28;20214;-68
2023/05/23 00:31:00;;;;;;;1.58;1.13;;;13.10;99.90;;;;;;5015448;28;20183;-68
2023/05/23 00:33:25;;;;;;;1.75;1.50;;;13.10;99.90;;;;;;5015033;28;20253;-67
2023/05/23 00:35:51;;;;;;;0.68;0.68;;;13.00;99.90;;;;;;5014261;28;20298;-68
2023/05/23 00:38:18;;;;;;;0.57;0.57;;;13.00;99.90;;;;;;5017177;28;20562;-68
2023/05/23 00:40:43;;;;;;;1.13;0.80;;;13.00;99.90;;;;;;5034900;28;20252;-68
2023/05/23 00:43:09;;;;;;;0.73;0.73;;;12.90;99.90;;;;;;5034791;28;20661;-68
2023/05/23 00:45:35;;;;;;;0.60;0.60;;;12.90;99.90;;;;;;5033724;28;20654;-68
2023/05/23 00:48:03;;;;;;;0.75;0.75;;;12.90;99.90;;;;;;5034616;28;20198;-68
2023/05/23 00:50:29;;;;;;;0.40;0.40;;;12.90;99.90;;;;;;5034549;28;20186;-68
2023/05/23 00:52:56;;;;;;;0.70;0.70;;;12.90;99.90;;;;;;5034633;28;20194;-68
2023/05/23 00:55:23;;;;;;;0.80;0.57;;;12.80;99.90;;;;;;5016645;28;20198;-68
2023/05/23 00:57:51;;;;;;;1.45;0.88;;;12.80;99.90;;;;;;5034724;28;20201;-68
2023/05/23 01:00:18;;;;;;;0.50;0.50;;;12.80;99.90;;;;;;5034528;28;20197;-67
2023/05/23 01:02:46;;;;;;;1.02;0.95;;;12.80;99.90;;;;;;5028179;28;20266;-67
2023/05/23 01:05:18;;;;;;;0.80;0.80;;;12.80;99.90;;;;;;5034416;28;20665;-67
2023/05/23 01:07:46;;;;;;;0.43;0.43;;;12.80;99.90;;;;;;5034199;28;20213;-67
2023/05/23 01:10:13;;;;;;;0.50;0.50;;;12.80;99.90;;;;;;5034488;28;20235;-67
2023/05/23 01:12:57;;;;;;;0.98;0.90;;;12.80;99.90;;;;;;5034266;28;21424;-68
2023/05/23 01:15:37;;;;;;;0.50;0.50;;;12.80;99.90;;;;;;5034094;28;20710;-68
2023/05/23 01:18:33;;;;;;;0.73;0.73;;;12.80;99.90;;;;;;5016647;28;20613;-67
2023/05/23 01:21:05;;;;;;;0.50;0.50;;;12.80;99.90;;;;;;5034393;28;20225;-67
2023/05/23 01:23:54;;;;;;;0.68;0.68;;;12.80;99.90;;;;;;5034047;28;20657;-67
2023/05/23 01:26:37;;;;;;;0.60;0.60;;;12.70;99.90;;;;;;5033945;28;20197;-67
2023/05/23 01:29:09;;;;;;;0.77;0.60;;;12.70;99.90;;;;;;5016402;28;20210;-67
2023/05/23 01:31:38;;;;;;;0.73;0.73;;;12.70;99.90;;;;;;5033766;28;20248;-67
2023/05/23 01:34:05;;;;;;;0.80;0.80;;;12.60;99.90;;;;;;5015937;28;20658;-67
2023/05/23 01:36:34;;;;;;;0.80;0.80;;;12.60;99.90;;;;;;5033901;28;20186;-67
2023/05/23 01:39:00;;;;;;;0.55;0.55;;;12.70;99.90;;;;;;5034058;28;20221;-67
2023/05/23 01:41:27;;;;;;;0.60;0.60;;;12.70;99.90;;;;;;5033645;28;20205;-67
2023/05/23 01:43:54;;;;;;;1.40;0.80;;;12.60;99.90;;;;;;5033655;28;20684;-67
2023/05/23 01:46:21;;;;;;;0.70;0.70;;;12.70;99.90;;;;;;5033478;28;20190;-68
2023/05/23 01:48:48;;;;;;;1.63;1.20;;;12.70;99.90;;;;;;5033949;28;20237;-68
2023/05/23 01:51:14;;;;;;;0.75;0.75;;;12.70;99.90;;;;;;5016642;28;20276;-68
2023/05/23 01:53:40;;;;;;;1.42;1.02;;;12.70;99.90;;;;;;5033715;28;20197;-67
2023/05/23 01:56:07;;;;;;;5.15;1.00;;;12.70;99.90;;;;;;5033838;28;20216;-67
2023/05/23 01:58:36;;;;;;;0.80;0.80;;;12.70;99.90;;;;;;5033830;28;20248;-67
2023/05/23 02:01:01;;;;;;;0.52;0.52;;;12.80;99.90;;;;;;5031832;28;20635;-67
2023/05/23 02:03:27;;;;;;;0.35;0.35;;;12.80;99.90;;;;;;5014865;28;20317;-67
2023/05/23 02:05:53;;;;;;;0.95;0.95;;;12.80;99.90;;;;;;5032978;28;20213;-68
2023/05/23 02:08:21;;;;;;;0.63;0.63;;;12.80;99.90;;;;;;5015401;28;20272;-68
2023/05/23 02:10:47;;;;;;;0.60;0.60;;;12.80;99.90;;;;;;5033682;28;20197;-67
2023/05/23 02:13:13;;;;;;;0.50;0.50;;;12.80;99.90;;;;;;5033555;28;20194;-67
2023/05/23 02:15:38;;;;;;;0.80;0.80;;;12.80;99.90;;;;;;5033078;28;20268;-67
2023/05/23 02:18:05;;;;;;;3.70;0.93;;;12.80;99.90;;;;;;5033563;28;20198;-67
2023/05/23 02:20:31;;;;;;;0.60;0.60;;;12.80;99.90;;;;;;5033151;28;20661;-67
2023/05/23 02:22:56;;;;;;;1.10;0.85;;;12.80;99.90;;;;;;5033375;28;20252;-68
2023/05/23 02:25:22;;;;;;;1.80;1.40;;;12.70;99.90;;;;;;5033975;28;20213;-68
2023/05/23 02:27:48;;;;;;;0.90;0.90;;;12.80;99.90;;;;;;5015063;28;20289;-67
2023/05/23 02:30:16;;;;;;;0.50;0.50;;;12.70;99.90;;;;;;5033201;28;20577;-67
2023/05/23 02:32:42;;;;;;;0.50;0.50;;;12.80;99.90;;;;;;5015704;28;20658;-67
2023/05/23 02:35:09;;;;;;;0.60;0.60;;;12.80;99.90;;;;;;5033226;28;20190;-68
2023/05/23 02:37:35;;;;;;;1.35;1.25;;;12.80;99.90;;;;;;5033142;28;20224;-67
2023/05/23 02:40:00;;;;;;;0.60;0.60;;;12.80;99.90;;;;;;5033314;28;20202;-68
2023/05/23 02:42:26;;;;;;;0.95;0.82;;;12.80;99.90;;;;;;5014876;28;20280;-68
2023/05/23 02:44:52;;;;;;;0.63;0.63;;;12.80;99.90;;;;;;5033107;28;20208;-67
2023/05/23 02:47:18;;;;;;;0.60;0.60;;;12.80;99.90;;;;;;5032967;28;20661;-67
2023/05/23 02:49:43;;;;;;;0.93;0.70;;;12.80;99.90;;;;;;5033262;28;20248;-67
2023/05/23 02:52:09;;;;;;;0.70;0.70;;;12.80;99.90;;;;;;5033152;28;20197;-67
2023/05/23 02:54:35;;;;;;;0.73;0.73;;;12.80;99.90;;;;;;5015181;28;20661;-67
2023/05/23 02:57:00;;;;;;;0.50;0.50;;;12.80;99.90;;;;;;5032982;28;20190;-67
2023/05/23 02:59:26;;;;;;;0.60;0.60;;;12.90;99.90;;;;;;5014899;28;20230;-67
2023/05/23 03:01:52;;;;;;;0.50;0.50;;;12.90;99.90;;;;;;5036805;28;20212;-67
2023/05/23 03:04:18;;;;;;;0.88;0.88;;;12.90;99.90;;;;;;5036365;28;20731;-67
2023/05/23 03:06:44;;;;;;;0.93;0.70;;;13.00;99.90;;;;;;5032831;28;20271;-67
2023/05/23 03:09:09;;;;;;;9.88;0.82;;;13.00;99.90;;;;;;5032791;28;20724;-67
2023/05/23 03:11:36;;;;;;;0.70;0.70;;;13.10;99.90;;;;;;5032659;28;20325;-67
2023/05/23 03:14:02;;;;;;;0.40;0.40;;;13.20;99.90;;;;;;5015092;28;20567;-67
2023/05/23 03:16:28;;;;;;;0.50;0.50;;;13.20;99.90;;;;;;5032590;28;20273;-67
2023/05/23 03:18:53;;;;;;;0.52;0.52;;;13.30;99.90;;;;;;5033087;28;20768;-67
2023/05/23 03:21:19;;;;;;;0.52;0.52;;;13.40;99.90;;;;;;5031881;28;20197;-68
2023/05/23 03:23:45;;;;;;;0.70;0.70;;;13.40;99.90;;;;;;5032915;28;20241;-67
2023/05/23 03:26:11;;;;;;;0.32;0.32;;;13.50;99.90;;;;;;5032531;28;20202;-67
2023/05/23 03:28:36;;;;;;;10.48;1.40;;;13.50;99.90;;;;;;5032423;28;20202;-67
2023/05/23 03:31:02;;;;;;;1.20;1.10;;;13.60;99.90;;;;;;5032926;28;20218;-67
2023/05/23 03:33:28;;;;;;;0.60;0.60;;;13.70;99.90;;;;;;5032392;28;20669;-67
2023/05/23 03:35:55;;;;;;;0.70;0.70;;;13.80;99.90;;;;;;5032626;28;20187;-67
2023/05/23 03:38:21;;;;;;;5.15;1.50;;;13.90;99.90;;;;;;5032215;28;20618;-68
2023/05/23 03:40:46;;;;;;;0.50;0.50;;;14.00;99.90;;;;;;5035497;28;20194;-68
2023/05/23 03:43:12;;;;;;;0.88;0.88;;;14.00;99.90;;;;;;5036100;28;20232;-67
2023/05/23 03:45:38;;;;;;;1.02;1.02;;;14.10;99.90;;;;;;5035598;28;20202;-68
2023/05/23 03:48:03;;;;;;;0.75;0.75;;;14.20;99.90;;;;;;5036113;28;20206;-67
2023/05/23 03:50:30;;;;;;;1.08;0.73;;;14.20;99.90;;;;;;5035828;28;20194;-67
2023/05/23 03:52:58;;;;;;;0.50;0.50;;;14.30;99.90;;;;;;5035866;28;20186;-67
2023/05/23 03:55:24;;;;;;;0.70;0.70;;;14.30;99.90;;;;;;5017749;28;20323;-68
2023/05/23 03:57:53;;;;;;;1.38;1.10;;;14.30;99.90;;;;;;5035731;28;20201;-67
2023/05/23 04:00:19;;;;;;;0.85;0.82;;;14.30;99.90;;;;;;5035244;28;20209;-67
2023/05/23 04:02:45;;;;;;;0.90;0.90;;;14.30;99.90;;;;;;5035249;28;20234;-68
2023/05/23 04:05:12;;;;;;;0.77;0.77;;;14.30;99.90;;;;;;5035679;28;20202;-68
2023/05/23 04:07:37;;;;;;;0.95;0.88;;;14.20;99.90;;;;;;5035302;28;20343;-68
2023/05/23 04:10:04;;;;;;;0.75;0.75;;;14.20;99.90;;;;;;5035695;28;20219;-67
2023/05/23 04:12:30;;;;;;;0.93;0.93;;;14.20;99.90;;;;;;5035465;28;20739;-67
2023/05/23 04:14:59;;;;;;;2.53;1.23;;;14.20;99.90;;;;;;5017748;28;20217;-67
2023/05/23 04:17:28;;;;;;;1.20;0.73;;;14.10;99.90;;;;;;5035086;28;20205;-68
2023/05/23 04:19:54;;;;;;;1.08;0.75;;;14.20;99.90;;;;;;5017842;28;20201;-68
2023/05/23 04:22:23;;;;;;;0.60;0.60;;;14.20;99.90;;;;;;5017464;28;20244;-68
2023/05/23 04:24:48;;;;;;;0.52;0.52;;;14.10;99.90;;;;;;5035365;28;20665;-67
2023/05/23 04:27:14;;;;;;;0.35;0.35;;;14.10;99.90;;;;;;5035356;28;20210;-67
2023/05/23 04:29:40;;;;;;;1.05;0.90;;;14.10;99.90;;;;;;5035168;28;20201;-67
2023/05/23 04:32:06;;;;;;;0.85;0.85;;;14.10;99.90;;;;;;5035335;28;20678;-67
2023/05/23 04:34:32;;;;;;;0.80;0.80;;;14.10;99.90;;;;;;5035025;28;20190;-67
2023/05/23 04:37:02;;;;;;;0.75;0.75;;;14.20;99.90;;;;;;5035212;28;20228;-68
2023/05/23 04:39:28;;;;;;;0.55;0.55;;;14.30;99.90;;;;;;5034930;28;20716;-67
2023/05/23 04:41:55;;;;;;;0.80;0.80;;;14.50;99.90;;;;;;5034871;28;20676;-67
2023/05/23 04:44:22;;;;;;;0.60;0.55;;;14.50;99.90;;;;;;5034260;28;20631;-68
2023/05/23 04:46:49;;;;;;;1.10;0.95;;;14.60;99.90;;;;;;5034991;28;20202;-67
2023/05/23 04:49:15;;;;;;;2.05;1.10;;;14.70;99.90;;;;;;5016283;28;20260;-68
2023/05/23 04:51:42;;;;;;;0.43;0.43;;;14.80;99.90;;;;;;5034149;28;20552;-68
2023/05/23 04:54:08;;;;;;;1.25;1.10;;;14.80;99.90;;;;;;5034689;28;20267;-68
2023/05/23 04:56:33;;;;;;;1.10;0.77;;;14.90;99.90;;;;;;5016832;28;20717;-68
2023/05/23 04:58:59;;;;;;;0.70;0.70;;;15.00;99.90;;;;;;5034852;28;20277;-67
2023/05/23 05:01:26;;;;;;;1.00;0.93;;;15.00;99.90;;;;;;5034281;28;20198;-68
2023/05/23 05:03:52;;;;;;;0.77;0.77;;;15.10;99.90;;;;;;5034496;28;20242;-67
2023/05/23 05:06:19;;;;;;;0.70;0.70;;;15.00;99.90;;;;;;5034685;28;20209;-68
2023/05/23 05:08:45;;;;;;;0.70;0.70;;;15.00;99.90;;;;;;5034467;28;20209;-67
2023/05/23 05:11:14;;;;;;;1.60;0.82;;;15.00;99.90;;;;;;5034242;28;20649;-68
2023/05/23 05:13:40;;;;;;;0.93;0.93;;;15.00;99.90;;;;;;5034384;28;20202;-67
2023/05/23 05:16:06;;;;;;;0.88;0.88;;;15.00;99.90;;;;;;5034391;28;20186;-67
2023/05/23 05:18:32;;;;;;;0.45;0.45;;;15.00;99.90;;;;;;5034431;28;20332;-67
2023/05/23 05:20:57;;;;;;;3.97;2.10;;;15.00;99.90;;;;;;5034399;28;20245;-67
2023/05/23 05:23:27;;;;;;;1.45;1.35;;;14.90;99.90;;;;;;5033910;28;20198;-67
2023/05/23 05:25:55;;;;;;;0.75;0.75;;;14.80;99.90;;;;;;5033925;28;20218;-68
2023/05/23 05:28:21;;;;;;;0.63;0.63;;;14.80;99.90;;;;;;5016462;28;20293;-68
2023/05/23 05:30:47;;;;;;;0.63;0.63;;;14.70;99.90;;;;;;5034457;28;20225;-68
2023/05/23 05:33:13;;;;;;;1.17;1.08;;;14.70;99.90;;;;;;5015966;28;20677;-67
2023/05/23 05:35:39;;;;;;;0.60;0.60;;;14.70;99.90;;;;;;5015369;28;20292;-67
2023/05/23 05:38:05;;;;;;;6.90;1.25;;;14.70;99.90;;;;;;5016183;28;20202;-68
2023/05/23 05:40:31;;;;;;;0.77;0.77;;;14.70;99.90;;;;;;5033624;28;20730;-67
2023/05/23 05:43:00;;;;;;;0.47;0.47;;;14.70;99.90;;;;;;5034092;28;20276;-67
2023/05/23 05:45:29;;;;;;;1.42;1.02;;;14.70;99.90;;;;;;5033489;28;20228;-68
2023/05/23 05:47:54;;;;;;;2.05;1.13;;;14.70;99.90;;;;;;5033768;28;20666;-67
2023/05/23 05:50:20;;;;;;;1.05;0.98;;;14.80;99.90;;;;;;5033453;28;20224;-67
2023/05/23 05:52:46;;;;;;;0.82;0.82;;;14.80;99.90;;;;;;5033877;28;20186;-67
2023/05/23 05:55:14;;;;;;;0.63;0.63;;;14.80;99.90;;;;;;5033779;28;20563;-67
2023/05/23 05:57:41;;;;;;;0.73;0.73;;;14.80;99.90;;;;;;5033730;28;20194;-67
2023/05/23 06:00:13;;;;;;;2.03;0.90;;;14.80;99.90;;;;;;5015846;28;20681;-67
2023/05/23 06:02:41;;;;;;;1.10;1.05;;;14.90;99.90;;;;;;5032284;28;20232;-67
2023/05/23 06:05:11;;;;;;;2.13;1.42;;;15.00;99.90;;;;;;5033572;28;20218;-67
2023/05/23 06:07:37;;;;;;;1.17;1.05;;;15.20;99.90;;;;;;5033359;28;20245;-67
2023/05/23 06:10:04;;;;;;;2.13;1.20;;;15.30;99.90;;;;;;5015501;28;20677;-68
2023/05/23 06:12:33;;;;;;;0.98;0.98;;;15.40;99.90;;;;;;5013054;28;20222;-67
2023/05/23 06:15:01;;;;;;;1.95;1.42;;;15.40;99.90;;;;;;5013648;28;20198;-67
2023/05/23 06:17:27;;;;;;;0.82;0.70;;;15.40;99.90;;;;;;5013470;28;20234;-67
2023/05/23 06:19:56;;;;;;;0.70;0.70;;;15.50;99.90;;;;;;5013377;28;20211;-68
2023/05/23 06:22:22;;;;;;;2.55;1.25;;;15.50;99.90;;;;;;5013392;28;20191;-68
2023/05/23 06:24:48;;;;;;;1.02;0.95;;;15.50;99.90;;;;;;4995658;28;20696;-67
2023/05/23 06:27:13;;;;;;;0.60;0.60;;;15.50;99.90;;;;;;5013086;28;20596;-68
2023/05/23 06:29:42;;;;;;;1.45;1.20;;;15.40;99.90;;;;;;5013460;28;20546;-68
2023/05/23 06:32:08;;;;;;;2.13;1.50;;;15.30;99.90;;;;;;5013449;28;20533;-67
2023/05/23 06:34:33;;;;;;;1.00;0.93;;;15.20;99.90;;;;;;5013153;28;20194;-67
2023/05/23 06:36:59;;;;;;;0.77;0.75;;;15.10;99.90;;;;;;5013118;28;20198;-68
2023/05/23 06:39:25;;;;;;;4.43;1.40;;;15.20;99.90;;;;;;5013191;28;20229;-67
2023/05/23 06:41:53;;;;;;;0.90;0.90;;;15.30;99.90;;;;;;4995685;28;20247;-68
2023/05/23 06:44:19;;;;;;;0.60;0.60;;;15.30;99.90;;;;;;5013050;28;20304;-68
2023/05/23 06:46:46;;;;;;;6.30;1.02;;;15.50;99.90;;;;;;5013107;28;20206;-68
2023/05/23 06:49:15;;;;;;;1.20;0.75;;;15.60;99.90;;;;;;5013220;28;20258;-68
2023/05/23 06:51:40;;;;;;;0.47;0.47;;;15.70;99.90;;;;;;4995345;28;20241;-67
2023/05/23 06:54:06;;;;;;;1.55;0.95;;;15.70;99.90;;;;;;5012744;28;20267;-67
2023/05/23 06:56:32;;;;;;;1.92;1.17;;;15.80;99.90;;;;;;5028933;28;20563;-68
2023/05/23 06:58:58;;;;;;;9.57;1.25;;;15.90;99.90;;;;;;5032932;28;20672;-67
2023/05/23 07:01:23;;;;;;;2.88;0.98;;;16.00;99.90;;;;;;5014936;28;20646;-67
2023/05/23 07:03:51;;;;;;;0.60;0.60;;;16.20;99.90;;;;;;5032452;28;20244;-67
2023/05/23 07:06:17;;;;;;;1.00;0.90;;;16.40;99.90;;;;;;4997149;28;20230;-68
2023/05/23 07:08:43;;;;;;;0.70;0.70;;;16.60;99.90;;;;;;5013158;28;20658;-68
2023/05/23 07:11:09;;;;;;;2.10;1.05;;;16.70;99.90;;;;;;5012695;28;20187;-67
2023/05/23 07:13:35;;;;;;;0.90;0.82;;;16.70;99.90;;;;;;5013828;28;20191;-68
2023/05/23 07:16:01;;;;;;;3.40;1.30;;;16.80;99.90;;;;;;5017116;28;20230;-68
2023/05/23 07:18:27;;;;;;;1.13;1.08;;;16.90;99.90;;;;;;5016693;28;20332;-68
2023/05/23 07:20:52;;;;;;;0.68;0.68;;;16.90;99.90;;;;;;5016829;28;20205;-67
2023/05/23 07:23:18;;;;;;;1.40;0.82;;;17.00;99.90;;;;;;4999275;28;20206;-68
2023/05/23 07:25:45;;;;;;;0.90;0.90;;;17.10;99.90;;;;;;4999258;28;20202;-68
2023/05/23 07:28:11;;;;;;;0.35;0.35;;;17.00;99.90;;;;;;5016492;28;20665;-68
2023/05/23 07:30:37;;;;;;;3.75;1.48;;;16.80;99.90;;;;;;5016536;28;20281;-68
2023/05/23 07:33:03;;;;;;;1.58;1.00;;;16.70;99.90;;;;;;5015957;28;20222;-68
2023/05/23 07:35:29;;;;;;;0.50;0.50;;;16.60;99.90;;;;;;5016665;28;20198;-68
2023/05/23 07:37:54;;;;;;;1.23;0.85;;;16.60;99.90;;;;;;5016697;28;20601;-68
2023/05/23 07:40:21;;;;;;;0.40;0.40;;;16.60;99.90;;;;;;5016264;28;20249;-68
2023/05/23 07:42:47;;;;;;;0.93;0.90;;;16.50;99.90;;;;;;5016440;28;20716;-68
2023/05/23 07:45:12;;;;;;;0.68;0.57;;;16.50;99.90;;;;;;5016140;28;20277;-68
2023/05/23 07:47:38;;;;;;;0.82;0.82;;;16.60;99.90;;;;;;5016033;28;20207;-68
2023/05/23 07:50:05;;;;;;;0.60;0.60;;;16.80;99.90;;;;;;5016319;28;20183;-68
2023/05/23 07:52:31;;;;;;;0.75;0.50;;;17.00;99.90;;;;;;5030128;28;20677;-68
2023/05/23 07:54:58;;;;;;;1.95;1.23;;;17.20;99.90;;;;;;5036049;28;20273;-68
2023/05/23 07:57:24;;;;;;;2.03;1.15;;;17.30;99.90;;;;;;5035685;28;20190;-68
2023/05/23 07:59:51;;;;;;;2.20;1.00;;;17.30;99.90;;;;;;5036006;28;20212;-68
2023/05/23 08:02:17;;;;;;;0.50;0.50;;;17.40;99.90;;;;;;5017715;28;20375;-68
2023/05/23 08:04:44;;;;;;;1.40;1.25;;;17.60;99.90;;;;;;5035620;28;20209;-68
2023/05/23 08:07:10;;;;;;;1.13;1.02;;;17.80;99.90;;;;;;5024180;28;20271;-68
2023/05/23 08:09:37;;;;;;;0.45;0.40;;;17.90;99.90;;;;;;4998109;28;20214;-68
2023/05/23 08:12:03;;;;;;;1.85;1.15;;;17.90;99.90;;;;;;5015923;28;20594;-66
2023/05/23 08:14:29;;;;;;;0.50;0.50;;;17.90;99.90;;;;;;5015281;28;20191;-67
2023/05/23 08:16:54;;;;;;;0.98;0.90;;;17.90;99.90;;;;;;4998253;28;20202;-68
2023/05/23 08:19:20;;;;;;;0.43;0.43;;;17.90;99.90;;;;;;5015734;28;20198;-69
2023/05/23 08:21:46;;;;;;;1.10;0.73;;;17.80;99.90;;;;;;5015894;28;20207;-68
2023/05/23 08:24:12;;;;;;;1.10;1.00;;;17.70;99.90;;;;;;4998089;28;20202;-68
2023/05/23 08:26:38;;;;;;;0.80;0.60;;;17.70;99.90;;;;;;5014714;28;20210;-68
2023/05/23 08:29:04;;;;;;;0.68;0.60;;;17.70;99.90;;;;;;5016035;28;20265;-68
2023/05/23 08:31:31;;;;;;;0.80;0.80;;;17.90;99.90;;;;;;4997729;28;20194;-68
2023/05/23 08:33:58;;;;;;;0.50;0.50;;;17.80;99.90;;;;;;4997977;28;20206;-68
2023/05/23 08:36:24;;;;;;;1.42;1.33;;;18.00;99.90;;;;;;4997592;28;20693;-68
2023/05/23 08:38:52;;;;;;;0.45;0.45;;;18.30;99.90;;;;;;5015180;28;20206;-68
2023/05/23 08:41:25;;;;;;;0.50;0.50;;;18.60;99.90;;;;;;5015185;28;20199;-68
2023/05/23 08:43:54;;;;;;;0.95;0.85;;;18.60;99.90;;;;;;5015224;28;20269;-68
2023/05/23 08:46:23;;;;;;;0.63;0.60;;;18.50;99.90;;;;;;5015274;28;20194;-68
2023/05/23 08:48:53;;;;;;;1.13;1.00;;;18.60;99.90;;;;;;5029410;28;20680;-69
2023/05/23 08:51:24;;;;;;;0.65;0.65;;;18.60;99.90;;;;;;5035128;28;20196;-69
2023/05/23 08:53:52;;;;;;;0.98;0.88;;;18.70;99.90;;;;;;5034991;28;20201;-69
2023/05/23 08:56:18;;;;;;;1.30;0.95;;;18.80;99.90;;;;;;5017054;28;20190;-68
2023/05/23 08:58:46;;;;;;;0.65;0.65;;;18.80;99.90;;;;;;5016204;28;20249;-67
2023/05/23 09:01:19;;;;;;;0.98;0.95;;;18.90;99.90;;;;;;4996860;28;20199;-68
2023/05/23 09:03:44;;;;;;;1.25;0.80;;;18.80;99.90;;;;;;5010741;28;20717;-68
2023/05/23 09:06:10;;;;;;;0.45;0.45;;;18.60;99.90;;;;;;5034555;28;20232;-68
2023/05/23 09:08:37;;;;;;;1.33;0.95;;;18.50;99.90;;;;;;5034478;28;20214;-68
2023/05/23 09:11:04;;;;;;;1.63;1.17;;;18.50;99.90;;;;;;5034640;28;20194;-68
2023/05/23 09:13:31;;;;;;;0.40;0.40;;;18.60;99.90;;;;;;5034631;28;20186;-68
2023/05/23 09:16:01;;;;;;;0.50;0.50;;;18.80;99.90;;;;;;5034232;28;20594;-68
2023/05/23 09:18:36;;;;;;;1.13;0.82;;;19.00;99.90;;;;;;5016455;28;20684;-68
2023/05/23 09:21:03;;;;;;;0.77;0.77;;;19.10;99.90;;;;;;5034401;28;20248;-68
2023/05/23 09:23:33;;;;;;;0.85;0.85;;;19.20;99.90;;;;;;5033891;28;20202;-68
2023/05/23 09:26:09;;;;;;;1.25;0.68;;;19.30;99.90;;;;;;5034258;28;20206;-68
2023/05/23 09:28:37;;;;;;;1.48;0.75;;;19.20;99.90;;;;;;5033952;28;20264;-69
2023/05/23 09:31:09;;;;;;;1.48;1.23;;;19.20;99.90;;;;;;5034261;28;20661;-68
2023/05/23 09:33:48;;;;;;;1.98;1.33;;;19.10;99.90;;;;;;5033885;28;20274;-68
2023/05/23 09:36:15;;;;;;;0.60;0.60;;;19.20;99.90;;;;;;5033463;28;20198;-69
2023/05/23 09:38:46;;;;;;;0.82;0.82;;;19.10;99.90;;;;;;5033271;28;20197;-68
2023/05/23 09:41:12;;;;;;;2.17;1.48;;;19.00;99.90;;;;;;5033848;28;20273;-68
2023/05/23 09:43:39;;;;;;;0.60;0.60;;;18.90;99.90;;;;;;5033225;28;20205;-68
2023/05/23 09:46:11;;;;;;;0.63;0.63;;;18.90;99.90;;;;;;5033848;28;20213;-69
2023/05/23 09:48:38;;;;;;;0.63;0.60;;;18.80;99.90;;;;;;5033710;28;20206;-68
2023/05/23 09:51:08;;;;;;;0.95;0.95;;;18.80;99.90;;;;;;5033944;28;20611;-68
2023/05/23 09:53:55;;;;;;;0.75;0.75;;;18.80;99.90;;;;;;5017794;28;20269;-69
2023/05/23 09:56:23;;;;;;;0.95;0.70;;;18.80;99.90;;;;;;5033425;28;20186;-69
2023/05/23 09:58:50;;;;;;;1.73;1.23;;;18.70;99.90;;;;;;5015464;28;20707;-68
2023/05/23 10:01:16;;;;;;;1.27;1.17;;;18.50;99.90;;;;;;5033444;28;20256;-68
2023/05/23 10:03:53;;;;;;;0.82;0.82;;;18.40;99.90;;;;;;5032977;28;20225;-68
2023/05/23 10:06:29;;;;;;;0.60;0.60;;;18.30;99.90;;;;;;5033284;28;20189;-69
2023/05/23 10:09:00;;;;;;;1.00;0.93;;;18.40;99.90;;;;;;5033814;28;20206;-69
2023/05/23 10:11:32;;;;;;;1.40;1.15;;;18.50;99.90;;;;;;5032885;28;20218;-68
2023/05/23 10:14:06;;;;;;;1.70;1.13;;;18.40;99.90;;;;;;5015775;28;20260;-68
2023/05/23 10:16:55;;;;;;;2.33;0.60;;;18.60;99.90;;;;;;5032786;28;20194;-68
2023/05/23 10:19:43;;;;;;;0.80;0.80;;;18.90;99.90;;;;;;5032986;28;20193;-68
2023/05/23 10:22:11;;;;;;;2.08;1.15;;;19.10;99.90;;;;;;5033286;28;20602;-68
2023/05/23 10:24:37;;;;;;;1.25;0.90;;;19.20;99.90;;;;;;5033086;28;20210;-68
2023/05/23 10:27:06;;;;;;;0.50;0.50;;;19.30;99.90;;;;;;5033497;28;20285;-68
2023/05/23 10:29:32;;;;;;;1.02;0.93;;;19.40;99.90;;;;;;5014857;28;20692;-68
2023/05/23 10:32:01;;;;;;;1.20;1.05;;;19.60;99.90;;;;;;5014635;28;20305;-68
2023/05/23 10:34:59;;;;;;;1.48;1.02;;;19.80;99.90;;;;;;5032928;28;20239;-68
2023/05/23 10:38:08;;;;;;;0.57;0.57;;;20.00;99.90;;;;;;5032708;28;20285;-69
2023/05/23 10:41:02;;;;;;;0.60;0.60;;;20.20;99.90;;;;;;4985770;28;20704;-68
2023/05/23 10:43:43;;;;;;;1.52;1.02;;;20.40;99.90;;;;;;5032527;28;20669;-68
2023/05/23 10:46:11;;;;;;;0.73;0.73;;;20.60;99.90;;;;;;5033095;28;20190;-68
2023/05/23 10:48:44;;;;;;;0.90;0.90;;;20.40;99.90;;;;;;5034092;28;20683;-69
2023/05/23 10:51:14;;;;;;;0.70;0.70;;;20.70;99.90;;;;;;5036633;28;20189;-69
2023/05/23 10:53:44;;;;;;;1.63;1.35;;;20.90;99.90;;;;;;5036858;28;20202;-69
2023/05/23 10:56:22;;;;;;;0.68;0.68;;;21.30;99.90;;;;;;5036981;28;20680;-68
2023/05/23 10:58:55;;;;;;;0.77;0.70;;;21.80;99.90;;;;;;5036849;28;20190;-68
2023/05/23 11:01:25;;;;;;;0.88;0.70;;;22.10;99.90;;;;;;5036655;28;20194;-69
2023/05/23 11:03:52;;;;;;;2.78;1.35;;;22.50;99.90;;;;;;5036881;28;20237;-69
2023/05/23 11:06:34;;;;;;;1.23;0.93;;;22.50;99.90;;;;;;5036602;28;20208;-68
2023/05/23 11:09:11;;;;;;;1.17;1.10;;;21.90;99.90;;;;;;5036781;28;20571;-68
2023/05/23 11:12:01;;;;;;;0.60;0.60;;;21.90;99.90;;;;;;5036477;28;20186;-68
2023/05/23 11:14:39;;;;;;;4.53;1.88;;;22.40;99.90;;;;;;5036189;28;20533;-68
2023/05/23 11:17:18;;;;;;;0.68;0.68;;;22.80;99.90;;;;;;5036807;28;20186;-72
2023/05/23 11:20:07;;;;;;;1.00;0.90;;;23.70;99.90;;;;;;5019073;28;20201;-72
2023/05/23 11:22:34;;;;;;;0.77;0.75;;;25.00;99.90;;;;;;5018837;28;20198;-72
2023/05/23 11:25:06;;;;;;;1.48;1.23;;;25.60;99.90;;;;;;5018663;28;20198;-72
2023/05/23 11:27:40;;;;;;;0.70;0.70;;;25.50;99.90;;;;;;5036129;28;20688;-72
2023/05/23 11:30:13;;;;;;;0.85;0.70;;;26.00;99.90;;;;;;5036540;28;20653;-72
2023/05/23 11:32:40;;;;;;;1.00;0.90;;;26.20;99.90;;;;;;5036495;28;20240;-72
2023/05/23 11:35:08;;;;;;;0.90;0.90;;;26.30;99.90;;;;;;5036337;28;20281;-72
2023/05/23 11:37:34;;;;;;;1.83;0.73;;;25.90;99.90;;;;;;5018397;28;20217;-72
2023/05/23 11:40:32;;;;;;;4.15;0.75;;;25.80;99.90;;;;;;5018714;28;20219;-72
2023/05/23 11:42:59;;;;;;;1.42;1.13;;;26.60;99.90;;;;;;5036480;28;20209;-73
2023/05/23 11:45:26;;;;;;;6.00;1.75;;;26.70;99.90;;;;;;5035368;28;20657;-72
2023/05/23 11:47:52;;;;;;;0.55;0.52;;;27.00;99.90;;;;;;5036547;28;20719;-72
2023/05/23 11:50:21;;;;;;;8.07;0.73;;;27.30;99.90;;;;;;5036164;28;20194;-72
2023/05/23 11:52:50;;;;;;;0.82;0.60;;;27.30;99.90;;;;;;5035718;28;20201;-72
2023/05/23 11:55:18;;;;;;;2.30;0.77;;;27.00;99.90;;;;;;5035448;28;20269;-72
2023/05/23 11:57:44;;;;;;;1.00;0.75;;;27.00;99.90;;;;;;5035423;28;20566;-72
2023/05/23 12:00:12;;;;;;;1.30;1.20;;;26.80;99.90;;;;;;5034786;28;20201;-72
2023/05/23 12:02:39;;;;;;;1.85;0.50;;;26.20;99.90;;;;;;5035437;28;20225;-73
2023/05/23 12:05:12;;;;;;;0.85;0.77;;;26.00;99.90;;;;;;5035928;28;20194;-72
2023/05/23 12:07:46;;;;;;;0.60;0.60;;;25.80;99.90;;;;;;5035393;28;20202;-72
2023/05/23 12:10:13;;;;;;;0.43;0.43;;;25.70;99.90;;;;;;5035602;28;20194;-72
2023/05/23 12:12:43;;;;;;;1.27;0.95;;;25.60;99.90;;;;;;5035469;28;20612;-72
2023/05/23 12:15:10;;;;;;;0.77;0.47;;;25.60;99.90;;;;;;5035576;28;20666;-71
2023/05/23 12:17:37;;;;;;;0.32;0.32;;;25.30;99.90;;;;;;5035361;28;20186;-72
2023/05/23 12:20:05;;;;;;;1.75;0.98;;;25.40;99.90;;;;;;5035459;28;20190;-72
2023/05/23 12:22:30;;;;;;;0.88;0.80;;;25.30;99.90;;;;;;5017344;28;20561;-72
2023/05/23 12:24:56;;;;;;;2.55;1.10;;;25.40;99.90;;;;;;5017516;28;20202;-71
2023/05/23 12:27:35;;;;;;;0.65;0.57;;;25.50;99.90;;;;;;5035187;28;20261;-72
2023/05/23 12:30:15;;;;;;;0.77;0.77;;;25.10;99.90;;;;;;5017702;28;20228;-71
2023/05/23 12:32:42;;;;;;;0.77;0.77;;;25.20;99.90;;;;;;5035122;28;20571;-71
2023/05/23 12:35:10;;;;;;;2.15;1.13;;;25.50;99.90;;;;;;5035307;28;20564;-71
2023/05/23 12:37:46;;;;;;;1.27;0.90;;;25.80;99.90;;;;;;5017202;28;20641;-72
2023/05/23 12:40:16;;;;;;;2.08;1.38;;;25.90;99.90;;;;;;5017264;28;20204;-72
2023/05/23 12:42:53;;;;;;;0.50;0.50;;;25.60;99.90;;;;;;5017410;28;20316;-72
2023/05/23 12:45:33;;;;;;;0.60;0.60;;;25.10;99.90;;;;;;5016981;28;20721;-72
2023/05/23 12:47:59;;;;;;;1.50;1.30;;;25.20;99.90;;;;;;5035087;28;20202;-71
2023/05/23 12:50:28;;;;;;;0.90;0.90;;;25.30;99.90;;;;;;5034770;28;20190;-71
2023/05/23 12:52:54;;;;;;;1.00;0.90;;;25.20;99.90;;;;;;5017381;28;20194;-71
2023/05/23 12:55:20;;;;;;;0.85;0.85;;;25.00;99.90;;;;;;5034701;28;20264;-72